Time;durP1;ratioP1;P1;durP2;ratioP2;P2;SDS_P1;SDS_P2;PMS_P1;PMS_P2;Temp;Humidity;BMP_temperature;BMP_pressure;BME280_temperature;BME280_humidity;BME280_pressure;Samples;Min_cycle;Max_cycle;Signal;HPM_P1;HPM_P2
2022/04/10 00:00:18;;;;;;;4.00;2.93;;;3.60;99.90;;;;;;4996017;28;20456;-84
2022/04/10 00:02:46;;;;;;;4.77;3.17;;;3.60;99.90;;;;;;4994447;28;20229;-84
2022/04/10 00:05:11;;;;;;;3.13;2.83;;;3.60;99.90;;;;;;4981748;28;20774;-84
2022/04/10 00:07:46;;;;;;;3.50;3.20;;;3.60;99.90;;;;;;4968143;28;20272;-84
2022/04/10 00:10:11;;;;;;;3.50;3.20;;;3.60;99.90;;;;;;4970630;28;20180;-84
2022/04/10 00:12:38;;;;;;;5.67;3.30;;;3.50;99.90;;;;;;4987869;28;20453;-84
2022/04/10 00:15:08;;;;;;;4.67;3.20;;;3.50;99.90;;;;;;4973918;28;20288;-84
2022/04/10 00:17:33;;;;;;;3.70;3.27;;;3.50;99.90;;;;;;4975241;28;20527;-85
2022/04/10 00:20:09;;;;;;;3.40;3.10;;;3.40;99.90;;;;;;4974516;28;20484;-84
2022/04/10 00:22:47;;;;;;;3.30;2.80;;;3.40;99.90;;;;;;4979762;28;20242;-84
2022/04/10 00:25:15;;;;;;;3.50;3.20;;;3.50;99.90;;;;;;4981462;28;20449;-84
2022/04/10 00:27:42;;;;;;;3.50;3.20;;;3.40;99.90;;;;;;4969929;28;21106;-85
2022/04/10 00:30:15;;;;;;;3.00;2.63;;;3.40;99.90;;;;;;4978532;28;20535;-84
2022/04/10 00:32:43;;;;;;;2.90;2.70;;;3.40;99.90;;;;;;4989411;28;20941;-85
2022/04/10 00:35:11;;;;;;;3.67;3.07;;;3.50;99.90;;;;;;4968365;28;20440;-84
2022/04/10 00:37:39;;;;;;;3.70;2.77;;;3.40;99.90;;;;;;4970568;28;20443;-83
2022/04/10 00:40:14;;;;;;;3.27;3.00;;;3.40;99.90;;;;;;4986723;28;21069;-85
2022/04/10 00:42:41;;;;;;;4.57;3.23;;;3.40;99.90;;;;;;4975459;28;20801;-83
2022/04/10 00:45:09;;;;;;;4.30;2.77;;;3.50;99.90;;;;;;4977578;28;20441;-84
2022/04/10 00:47:35;;;;;;;5.63;3.47;;;3.40;99.90;;;;;;4971336;28;21008;-82
2022/04/10 00:50:07;;;;;;;3.70;3.40;;;3.50;99.90;;;;;;4972870;28;21065;-85
2022/04/10 00:52:33;;;;;;;3.80;3.20;;;3.50;99.90;;;;;;4973125;28;20994;-85
2022/04/10 00:54:58;;;;;;;4.33;3.23;;;3.40;99.90;;;;;;4982216;28;20515;-85
2022/04/10 00:57:25;;;;;;;4.33;2.97;;;3.40;99.90;;;;;;4983817;28;20185;-85
2022/04/10 00:59:50;;;;;;;3.33;2.67;;;3.40;99.90;;;;;;4975803;28;20499;-84
2022/04/10 01:02:16;;;;;;;3.20;2.90;;;3.40;99.90;;;;;;4973350;28;20463;-86
2022/04/10 01:04:42;;;;;;;4.40;3.50;;;3.40;99.90;;;;;;4977219;28;20552;-82
2022/04/10 01:07:11;;;;;;;3.23;2.93;;;3.40;99.90;;;;;;4978191;28;20518;-83
2022/04/10 01:09:38;;;;;;;3.50;3.13;;;3.40;99.90;;;;;;4973307;28;20806;-81
2022/04/10 01:12:04;;;;;;;3.70;3.10;;;3.40;99.90;;;;;;4978428;28;20602;-82
2022/04/10 01:14:30;;;;;;;3.57;3.07;;;3.40;99.90;;;;;;4977469;28;20804;-83
2022/04/10 01:16:56;;;;;;;3.43;2.93;;;3.40;99.90;;;;;;4976022;28;20443;-82
2022/04/10 01:19:22;;;;;;;4.97;2.97;;;3.40;99.90;;;;;;4980568;28;20331;-84
2022/04/10 01:21:50;;;;;;;6.37;3.70;;;3.40;99.90;;;;;;4977882;28;20736;-82
2022/04/10 01:24:16;;;;;;;5.07;3.23;;;3.30;99.90;;;;;;4976643;28;20578;-83
2022/04/10 01:26:43;;;;;;;3.97;3.30;;;3.30;99.90;;;;;;4972769;28;20958;-83
2022/04/10 01:29:10;;;;;;;3.80;3.40;;;3.30;99.90;;;;;;4970412;28;20183;-83
2022/04/10 01:31:38;;;;;;;3.53;3.10;;;3.30;99.90;;;;;;4975506;28;20953;-83
2022/04/10 01:34:06;;;;;;;5.03;4.07;;;3.20;99.90;;;;;;4975919;28;20437;-83
2022/04/10 01:36:32;;;;;;;3.70;3.40;;;3.30;99.90;;;;;;4973405;28;20444;-83
2022/04/10 01:39:03;;;;;;;3.47;3.17;;;3.20;99.90;;;;;;4975246;28;20488;-83
2022/04/10 01:41:30;;;;;;;6.70;3.53;;;3.30;99.90;;;;;;4980449;28;20445;-82
2022/04/10 01:43:57;;;;;;;4.90;3.30;;;3.30;99.90;;;;;;4978254;28;21414;-82
2022/04/10 01:46:25;;;;;;;3.37;2.80;;;3.30;99.90;;;;;;4972892;28;20880;-82
2022/04/10 01:48:51;;;;;;;6.70;3.30;;;3.30;99.90;;;;;;4972824;28;20767;-82
2022/04/10 01:51:16;;;;;;;6.00;3.63;;;3.30;99.90;;;;;;4993785;28;20447;-83
2022/04/10 01:53:42;;;;;;;4.60;3.70;;;3.30;99.90;;;;;;4974134;28;20198;-83
2022/04/10 01:56:08;;;;;;;3.83;3.30;;;3.30;99.90;;;;;;4967849;28;20687;-83
2022/04/10 01:58:36;;;;;;;3.93;3.53;;;3.30;99.90;;;;;;4967947;28;20209;-83
2022/04/10 02:01:03;;;;;;;3.60;3.30;;;3.30;99.90;;;;;;4975790;28;20444;-83
2022/04/10 02:03:29;;;;;;;3.23;2.93;;;3.30;99.90;;;;;;4985599;28;20448;-82
2022/04/10 02:05:55;;;;;;;3.63;3.30;;;3.20;99.90;;;;;;4969693;28;20492;-83
2022/04/10 02:08:21;;;;;;;3.83;3.43;;;3.20;99.90;;;;;;4963006;28;20258;-83
2022/04/10 02:10:47;;;;;;;3.80;3.47;;;3.20;99.90;;;;;;4973704;28;20440;-83
2022/04/10 02:13:12;;;;;;;3.43;3.17;;;3.10;99.90;;;;;;4976367;28;20464;-84
2022/04/10 02:15:39;;;;;;;5.43;3.60;;;3.10;99.90;;;;;;4987371;28;20183;-83
2022/04/10 02:18:05;;;;;;;4.00;3.70;;;3.10;99.90;;;;;;4971659;28;20284;-83
2022/04/10 02:20:31;;;;;;;3.73;3.43;;;3.00;99.90;;;;;;4968024;28;20474;-83
2022/04/10 02:22:57;;;;;;;3.83;3.53;;;2.90;99.90;;;;;;4987037;28;20442;-84
2022/04/10 02:25:22;;;;;;;3.97;3.60;;;2.90;99.90;;;;;;4983581;28;20459;-83
2022/04/10 02:27:48;;;;;;;4.00;3.60;;;3.00;99.90;;;;;;4970525;28;20272;-83
2022/04/10 02:30:14;;;;;;;5.00;3.47;;;2.90;99.90;;;;;;4962029;28;20188;-83
2022/04/10 02:32:40;;;;;;;3.87;3.10;;;2.90;99.90;;;;;;4979723;28;20189;-83
2022/04/10 02:35:09;;;;;;;3.50;3.07;;;2.80;99.90;;;;;;4975776;28;20559;-83
2022/04/10 02:37:35;;;;;;;5.10;3.70;;;2.80;99.90;;;;;;4984442;28;20733;-83
2022/04/10 02:40:03;;;;;;;3.37;3.07;;;2.80;99.90;;;;;;4977593;28;20976;-83
2022/04/10 02:42:29;;;;;;;3.63;3.33;;;2.70;99.90;;;;;;4974311;28;20467;-82
2022/04/10 02:44:55;;;;;;;3.53;3.23;;;2.70;99.90;;;;;;4976755;28;20489;-83
2022/04/10 02:47:20;;;;;;;3.33;3.03;;;2.70;99.90;;;;;;4976710;28;20176;-82
2022/04/10 02:49:47;;;;;;;3.67;3.37;;;2.80;99.90;;;;;;4981690;28;20183;-82
2022/04/10 02:52:12;;;;;;;4.10;3.70;;;2.80;99.90;;;;;;4972068;28;20180;-82
2022/04/10 02:54:38;;;;;;;5.20;3.60;;;2.80;99.90;;;;;;4979338;28;20825;-84
2022/04/10 02:57:03;;;;;;;4.80;3.73;;;2.80;99.90;;;;;;4976104;28;20184;-83
2022/04/10 02:59:29;;;;;;;3.93;3.20;;;2.70;99.90;;;;;;4972566;28;20209;-83
2022/04/10 03:01:55;;;;;;;5.73;3.80;;;2.70;99.90;;;;;;4981893;28;20179;-82
2022/04/10 03:04:20;;;;;;;4.33;3.57;;;2.60;99.90;;;;;;4983284;28;20191;-82
2022/04/10 03:06:46;;;;;;;4.10;3.70;;;2.70;99.90;;;;;;4987616;28;20549;-82
2022/04/10 03:09:11;;;;;;;3.73;3.27;;;2.60;99.90;;;;;;4979646;28;20621;-82
2022/04/10 03:11:37;;;;;;;5.47;4.43;;;2.50;99.90;;;;;;4986407;28;20199;-82
2022/04/10 03:14:03;;;;;;;5.67;4.30;;;2.50;99.90;;;;;;4979983;28;20531;-82
2022/04/10 03:16:28;;;;;;;4.70;3.83;;;2.60;99.90;;;;;;4975590;28;20632;-82
2022/04/10 03:18:54;;;;;;;5.40;3.97;;;2.50;99.90;;;;;;4976350;28;20470;-82
2022/04/10 03:21:19;;;;;;;4.20;3.53;;;2.50;99.90;;;;;;4986778;28;20185;-83
2022/04/10 03:23:46;;;;;;;5.20;3.40;;;2.40;99.90;;;;;;4980038;28;20278;-81
2022/04/10 03:26:11;;;;;;;4.53;3.47;;;2.50;99.90;;;;;;4994904;28;20615;-82
2022/04/10 03:28:37;;;;;;;4.80;4.30;;;2.40;99.90;;;;;;4972310;28;20432;-82
2022/04/10 03:31:02;;;;;;;4.77;4.17;;;2.40;99.90;;;;;;4980840;28;20236;-82
2022/04/10 03:33:30;;;;;;;6.40;3.87;;;2.40;99.90;;;;;;4977549;28;20557;-82
2022/04/10 03:35:56;;;;;;;3.93;3.63;;;2.40;99.90;;;;;;4975715;28;20555;-82
2022/04/10 03:38:22;;;;;;;4.20;3.80;;;2.30;99.90;;;;;;4967485;28;20473;-82
2022/04/10 03:40:48;;;;;;;4.60;3.77;;;2.20;99.90;;;;;;4970037;28;20284;-83
2022/04/10 03:43:14;;;;;;;5.17;4.10;;;2.20;99.90;;;;;;4967649;28;20813;-83
2022/04/10 03:45:40;;;;;;;5.00;4.20;;;2.20;99.90;;;;;;4969746;28;21281;-82
2022/04/10 03:48:09;;;;;;;4.53;3.60;;;2.20;99.90;;;;;;4981515;28;20490;-82
2022/04/10 03:50:35;;;;;;;4.63;4.23;;;2.30;99.90;;;;;;4976268;28;20446;-82
2022/04/10 03:53:08;;;;;;;6.20;4.23;;;2.20;99.90;;;;;;4982442;28;20441;-82
2022/04/10 03:55:33;;;;;;;4.00;3.60;;;2.20;99.90;;;;;;4967877;28;20453;-83
2022/04/10 03:57:59;;;;;;;3.60;3.30;;;2.20;99.90;;;;;;4968197;28;20469;-82
2022/04/10 04:00:24;;;;;;;4.97;4.10;;;2.20;99.90;;;;;;4982422;28;20308;-82
2022/04/10 04:02:50;;;;;;;7.00;4.27;;;2.10;99.90;;;;;;4974216;28;20193;-81
2022/04/10 04:05:15;;;;;;;5.00;4.27;;;2.00;99.90;;;;;;4978298;28;21066;-83
2022/04/10 04:07:41;;;;;;;5.43;4.43;;;2.00;99.90;;;;;;4970626;28;20193;-82
2022/04/10 04:10:08;;;;;;;4.53;4.03;;;2.00;99.90;;;;;;4967737;28;20296;-82
2022/04/10 04:12:37;;;;;;;4.07;3.60;;;2.00;99.90;;;;;;4960479;28;20209;-82
2022/04/10 04:15:06;;;;;;;3.80;3.50;;;2.00;99.90;;;;;;4964394;28;20459;-82
2022/04/10 04:17:32;;;;;;;3.97;3.57;;;1.90;99.90;;;;;;4964473;28;20462;-82
2022/04/10 04:19:58;;;;;;;4.97;4.20;;;1.90;99.90;;;;;;4961454;28;20477;-83
2022/04/10 04:22:23;;;;;;;4.63;3.90;;;1.80;99.90;;;;;;4970851;28;20277;-82
2022/04/10 04:24:49;;;;;;;4.73;4.33;;;1.90;99.90;;;;;;4971878;28;20452;-82
2022/04/10 04:27:14;;;;;;;4.70;4.30;;;1.80;99.90;;;;;;4972326;28;20626;-82
2022/04/10 04:29:40;;;;;;;6.43;4.40;;;1.90;99.90;;;;;;4969331;28;20216;-82
2022/04/10 04:32:06;;;;;;;4.67;4.27;;;1.80;99.90;;;;;;4975360;28;20255;-83
2022/04/10 04:34:32;;;;;;;5.83;4.83;;;1.90;99.90;;;;;;4973198;28;20183;-82
2022/04/10 04:37:00;;;;;;;4.70;4.30;;;1.80;99.90;;;;;;4976271;28;20965;-82
2022/04/10 04:39:25;;;;;;;5.00;4.23;;;1.80;99.90;;;;;;4967042;28;20225;-82
2022/04/10 04:41:51;;;;;;;5.13;4.37;;;1.90;99.90;;;;;;4982481;28;20458;-83
2022/04/10 04:44:16;;;;;;;5.40;4.40;;;1.90;99.90;;;;;;4971340;28;20279;-82
2022/04/10 04:46:42;;;;;;;6.60;4.57;;;1.90;99.90;;;;;;4975968;28;20628;-82
2022/04/10 04:49:08;;;;;;;4.77;4.30;;;1.90;99.90;;;;;;4969785;28;20190;-82
2022/04/10 04:51:36;;;;;;;5.20;4.70;;;1.90;99.90;;;;;;4970153;28;20185;-81
2022/04/10 04:54:02;;;;;;;5.17;4.67;;;2.00;99.90;;;;;;4976085;28;20286;-82
2022/04/10 04:56:28;;;;;;;5.17;4.17;;;2.10;99.90;;;;;;4961077;28;20814;-86
2022/04/10 04:58:53;;;;;;;4.33;3.93;;;2.10;99.90;;;;;;4964009;28;20457;-82
2022/04/10 05:01:19;;;;;;;5.13;4.30;;;2.20;99.90;;;;;;4989645;28;20533;-83
2022/04/10 05:03:44;;;;;;;6.47;5.33;;;2.20;99.90;;;;;;4984885;28;20802;-82
2022/04/10 05:06:10;;;;;;;8.10;4.70;;;2.30;99.90;;;;;;4978994;28;20191;-83
2022/04/10 05:08:35;;;;;;;4.23;3.93;;;2.30;99.90;;;;;;4980070;28;20201;-82
2022/04/10 05:11:01;;;;;;;4.43;4.03;;;2.30;99.90;;;;;;4978268;28;20597;-83
2022/04/10 05:13:27;;;;;;;8.23;4.47;;;2.30;99.90;;;;;;4985238;28;20196;-83
2022/04/10 05:15:53;;;;;;;5.33;4.27;;;2.40;99.90;;;;;;4972799;28;20211;-83
2022/04/10 05:18:19;;;;;;;5.60;4.20;;;2.50;99.90;;;;;;4961834;28;20534;-83
2022/04/10 05:20:45;;;;;;;4.90;3.87;;;2.50;99.90;;;;;;4970041;28;20201;-83
2022/04/10 05:23:16;;;;;;;7.77;3.93;;;2.50;99.90;;;;;;4985665;28;20189;-83
2022/04/10 05:25:41;;;;;;;7.00;4.40;;;2.50;99.90;;;;;;4984362;28;20554;-83
2022/04/10 05:28:07;;;;;;;4.60;4.20;;;2.60;99.90;;;;;;4971896;28;20971;-82
2022/04/10 05:30:32;;;;;;;8.27;4.47;;;2.60;99.90;;;;;;4982554;28;20179;-83
2022/04/10 05:32:58;;;;;;;4.43;3.63;;;2.70;99.90;;;;;;4977463;28;20192;-84
2022/04/10 05:35:24;;;;;;;8.17;4.30;;;2.70;99.90;;;;;;4965818;28;21460;-84
2022/04/10 05:37:49;;;;;;;4.33;3.93;;;2.70;99.90;;;;;;4974413;28;20187;-83
2022/04/10 05:40:16;;;;;;;8.90;3.90;;;2.80;99.90;;;;;;4990276;28;20217;-83
2022/04/10 05:42:45;;;;;;;5.40;4.90;;;2.80;99.90;;;;;;4971412;28;20213;-83
2022/04/10 05:45:12;;;;;;;5.17;4.77;;;2.90;99.90;;;;;;4974912;28;20458;-85
2022/04/10 05:47:39;;;;;;;4.37;3.97;;;2.90;99.90;;;;;;4971663;28;20582;-86
2022/04/10 05:50:05;;;;;;;5.10;4.37;;;2.90;99.90;;;;;;4972496;28;20447;-84
2022/04/10 05:52:31;;;;;;;6.27;5.60;;;2.90;99.90;;;;;;4976863;28;20845;-85
2022/04/10 05:54:59;;;;;;;4.40;3.97;;;3.00;99.90;;;;;;4970424;28;20463;-85
2022/04/10 05:57:25;;;;;;;4.20;3.80;;;3.00;99.90;;;;;;4969824;28;20794;-84
2022/04/10 05:59:51;;;;;;;4.70;4.27;;;3.10;99.90;;;;;;4968630;28;20469;-85
2022/04/10 06:02:16;;;;;;;6.10;4.90;;;3.00;99.90;;;;;;4994105;28;20774;-85
2022/04/10 06:04:42;;;;;;;7.23;4.40;;;3.10;99.90;;;;;;4970892;28;21040;-85
2022/04/10 06:07:08;;;;;;;4.67;3.93;;;3.10;99.90;;;;;;4966595;28;20215;-85
2022/04/10 06:09:36;;;;;;;8.20;5.50;;;3.10;99.90;;;;;;4971647;28;21442;-85
2022/04/10 06:12:01;;;;;;;5.17;4.77;;;3.20;99.90;;;;;;4969371;28;20197;-84
2022/04/10 06:14:27;;;;;;;8.50;7.20;;;3.30;99.90;;;;;;4969998;28;20471;-85
2022/04/10 06:16:52;;;;;;;5.23;4.30;;;3.50;99.90;;;;;;4961844;28;20247;-85
2022/04/10 06:19:20;;;;;;;5.70;4.43;;;3.60;99.90;;;;;;4982057;28;20227;-84
2022/04/10 06:21:46;;;;;;;6.70;4.93;;;3.70;99.90;;;;;;4980201;28;20768;-85
2022/04/10 06:24:11;;;;;;;5.00;4.50;;;3.90;99.90;;;;;;4975253;28;20459;-85
2022/04/10 06:26:40;;;;;;;4.93;4.10;;;4.00;99.90;;;;;;4970860;28;20190;-85
2022/04/10 06:29:06;;;;;;;4.27;3.83;;;4.20;99.90;;;;;;4974456;28;20297;-85
2022/04/10 06:31:35;;;;;;;5.03;4.10;;;4.20;99.90;;;;;;4979724;28;20938;-85
2022/04/10 06:34:01;;;;;;;5.10;4.60;;;4.30;99.90;;;;;;4967862;28;20193;-85
2022/04/10 06:36:27;;;;;;;6.20;5.70;;;4.30;99.90;;;;;;4968613;28;20441;-84
2022/04/10 06:38:52;;;;;;;9.13;4.40;;;4.30;99.90;;;;;;4981378;28;20377;-84
2022/04/10 06:41:18;;;;;;;5.10;4.60;;;4.30;99.90;;;;;;4987204;28;20228;-84
2022/04/10 06:43:44;;;;;;;4.20;3.80;;;4.40;99.90;;;;;;4984829;28;20554;-84
2022/04/10 06:46:09;;;;;;;5.97;4.93;;;4.40;99.90;;;;;;4974298;28;20193;-86
2022/04/10 06:48:36;;;;;;;4.50;4.10;;;4.30;99.90;;;;;;4964344;28;20213;-84
2022/04/10 06:51:03;;;;;;;6.80;4.40;;;4.40;99.90;;;;;;4985640;28;20181;-84
2022/04/10 06:53:28;;;;;;;6.80;4.80;;;4.60;99.90;;;;;;4969571;28;20524;-84
2022/04/10 06:55:54;;;;;;;4.97;4.47;;;4.70;99.90;;;;;;4970012;28;20529;-84
2022/04/10 06:58:22;;;;;;;6.10;4.73;;;4.80;99.90;;;;;;4969074;28;20196;-84
2022/04/10 07:00:51;;;;;;;4.03;3.60;;;5.10;99.90;;;;;;4980456;28;20285;-84
2022/04/10 07:03:17;;;;;;;7.17;5.40;;;5.40;99.90;;;;;;4977693;28;20971;-84
2022/04/10 07:05:43;;;;;;;4.80;4.40;;;5.50;99.90;;;;;;4974266;28;22561;-83
2022/04/10 07:08:09;;;;;;;5.63;4.77;;;5.40;99.90;;;;;;4989561;28;20186;-84
2022/04/10 07:10:38;;;;;;;5.17;4.67;;;5.50;99.90;;;;;;4973773;28;20283;-84
2022/04/10 07:13:04;;;;;;;5.90;3.40;;;5.50;99.90;;;;;;4984215;28;20477;-84
2022/04/10 07:15:30;;;;;;;4.60;4.20;;;5.60;99.90;;;;;;4969025;28;20538;-84
2022/04/10 07:17:56;;;;;;;4.20;3.90;;;5.60;99.90;;;;;;4969386;28;20601;-84
2022/04/10 07:20:23;;;;;;;4.57;3.97;;;5.80;99.90;;;;;;4971901;28;20483;-84
2022/04/10 07:25:33;;;;;;;4.80;4.40;;;5.90;99.90;;;;;;4994473;28;20466;-84
2022/04/10 07:27:58;;;;;;;5.43;4.93;;;5.80;99.90;;;;;;4971041;28;20443;-84
2022/04/10 07:30:24;;;;;;;5.00;4.27;;;5.80;99.90;;;;;;4976282;28;20689;-85
2022/04/10 07:32:54;;;;;;;4.30;3.90;;;6.10;99.90;;;;;;4996446;28;20195;-84
2022/04/10 07:35:21;;;;;;;4.20;3.90;;;6.30;99.90;;;;;;4966780;28;20188;-84
2022/04/10 07:37:49;;;;;;;5.93;4.53;;;6.50;99.90;;;;;;4972303;28;20433;-84
2022/04/10 07:40:19;;;;;;;5.30;4.13;;;6.50;99.90;;;;;;4974756;28;20537;-84
2022/04/10 07:42:45;;;;;;;4.63;4.33;;;6.60;99.90;;;;;;4971112;28;20177;-84
2022/04/10 07:47:25;;;;;;;5.40;4.90;;;6.80;99.90;;;;;;4974127;28;21126;-84
2022/04/10 07:47:58;;;;;;;6.23;4.50;;;6.90;99.90;;;;;;4987507;28;20196;-84
2022/04/10 07:50:24;;;;;;;3.73;3.47;;;6.90;99.90;;;;;;4971634;28;20494;-83
2022/04/10 07:52:49;;;;;;;4.83;4.43;;;7.00;99.90;;;;;;4972756;28;20440;-84
2022/04/10 07:55:15;;;;;;;4.50;4.10;;;7.20;99.90;;;;;;4987364;28;20492;-84
2022/04/10 07:57:43;;;;;;;4.80;4.40;;;7.10;99.90;;;;;;4982361;28;20181;-85
2022/04/10 08:00:09;;;;;;;4.70;4.07;;;7.20;99.90;;;;;;4975432;28;20253;-84
2022/04/10 08:02:34;;;;;;;6.10;3.80;;;7.40;99.90;;;;;;4981309;28;20445;-84
2022/04/10 08:05:03;;;;;;;6.40;4.33;;;7.50;99.90;;;;;;4988249;28;20452;-84
2022/04/10 08:07:31;;;;;;;4.60;4.20;;;7.30;99.90;;;;;;4973220;28;20185;-84
2022/04/10 08:09:56;;;;;;;4.60;4.20;;;7.20;99.90;;;;;;4974848;28;20656;-84
2022/04/10 08:12:22;;;;;;;4.33;4.03;;;7.40;99.90;;;;;;4970353;28;21071;-84
2022/04/10 08:14:50;;;;;;;5.07;3.67;;;7.50;99.90;;;;;;4970741;28;20593;-85
2022/04/10 08:17:16;;;;;;;4.80;4.37;;;7.70;99.90;;;;;;4973841;28;20789;-85
2022/04/10 08:19:41;;;;;;;4.30;3.90;;;7.70;99.90;;;;;;4970497;28;20606;-84
2022/04/10 08:22:07;;;;;;;4.37;3.97;;;7.40;99.90;;;;;;4966343;28;20525;-84
2022/04/10 08:24:32;;;;;;;6.60;4.60;;;7.40;99.90;;;;;;4984384;28;20189;-84
2022/04/10 08:26:59;;;;;;;5.30;4.73;;;7.20;99.90;;;;;;4971141;28;20687;-84
2022/04/10 08:29:27;;;;;;;5.63;4.17;;;7.10;99.90;;;;;;4975429;28;21837;-85
2022/04/10 08:31:52;;;;;;;4.87;4.50;;;7.20;99.90;;;;;;4981210;28;20446;-84
2022/04/10 08:34:18;;;;;;;4.47;4.10;;;7.30;99.90;;;;;;4973199;28;20450;-84
2022/04/10 08:36:49;;;;;;;4.97;4.43;;;7.50;99.90;;;;;;4976866;28;20245;-84
2022/04/10 08:39:33;;;;;;;4.97;4.10;;;7.90;99.90;;;;;;4971243;28;20645;-85
2022/04/10 08:42:03;;;;;;;4.17;3.87;;;7.80;99.90;;;;;;4963546;28;20448;-84
2022/04/10 08:44:31;;;;;;;4.80;3.57;;;7.50;99.90;;;;;;4991994;28;20444;-84
2022/04/10 08:47:01;;;;;;;6.30;4.90;;;7.80;99.90;;;;;;4974259;28;20451;-85
2022/04/10 08:49:31;;;;;;;5.63;4.83;;;8.00;99.90;;;;;;4990654;28;20821;-84
2022/04/10 08:51:58;;;;;;;5.60;5.03;;;8.40;99.90;;;;;;4989384;28;20946;-84
2022/04/10 08:54:25;;;;;;;5.40;4.17;;;8.00;99.90;;;;;;4981688;28;22507;-84
2022/04/10 08:56:51;;;;;;;4.37;3.73;;;8.10;99.90;;;;;;4976030;28;20433;-84
2022/04/10 08:59:18;;;;;;;3.70;3.40;;;8.30;99.90;;;;;;4981878;28;20485;-85
2022/04/10 09:01:56;;;;;;;5.00;3.70;;;9.00;98.30;;;;;;4980510;28;20198;-85
2022/04/10 09:04:21;;;;;;;4.93;4.53;;;9.30;96.80;;;;;;4967939;28;20446;-85
2022/04/10 09:07:08;;;;;;;5.30;4.00;;;9.20;96.40;;;;;;4983045;28;20746;-85
2022/04/10 09:09:56;;;;;;;5.70;3.43;;;8.50;98.40;;;;;;4964719;28;20183;-85
2022/04/10 09:12:22;;;;;;;3.77;3.33;;;8.40;98.10;;;;;;4970027;28;21718;-85
2022/04/10 09:14:49;;;;;;;4.30;3.90;;;8.40;96.70;;;;;;4977273;28;20625;-85
2022/04/10 09:17:17;;;;;;;5.30;4.00;;;8.40;96.30;;;;;;4972318;28;20497;-84
2022/04/10 09:19:53;;;;;;;5.20;3.83;;;8.10;96.50;;;;;;4971939;28;21497;-84
2022/04/10 09:22:35;;;;;;;4.20;3.60;;;7.90;96.80;;;;;;4968851;28;20434;-84
2022/04/10 09:25:11;;;;;;;3.77;3.27;;;8.20;96.80;;;;;;4976408;28;20805;-84
2022/04/10 09:27:45;;;;;;;3.30;3.00;;;8.00;95.40;;;;;;4972951;28;20536;-84
2022/04/10 09:30:14;;;;;;;4.57;3.57;;;8.20;95.20;;;;;;4974305;28;20534;-85
2022/04/10 09:32:53;;;;;;;2.77;2.53;;;8.40;94.70;;;;;;4980980;28;20525;-84
2022/04/10 09:35:23;;;;;;;4.30;3.20;;;8.30;93.90;;;;;;4970572;28;20462;-84
2022/04/10 09:37:51;;;;;;;4.30;2.40;;;8.70;94.80;;;;;;4967056;28;21009;-84
2022/04/10 09:40:23;;;;;;;3.10;2.90;;;8.80;93.80;;;;;;4967720;28;20474;-84
2022/04/10 09:42:58;;;;;;;6.07;3.17;;;8.60;93.70;;;;;;4968566;28;21050;-84
2022/04/10 09:45:39;;;;;;;3.13;2.93;;;8.40;93.60;;;;;;4985327;28;20779;-84
2022/04/10 09:48:18;;;;;;;3.30;3.00;;;8.20;93.50;;;;;;4971454;28;20442;-84
2022/04/10 09:50:44;;;;;;;2.83;2.63;;;8.10;94.00;;;;;;4970103;28;21080;-84
2022/04/10 09:53:11;;;;;;;4.70;3.07;;;8.10;93.30;;;;;;4970093;28;20436;-84
2022/04/10 09:55:39;;;;;;;3.70;3.40;;;8.10;93.90;;;;;;4968807;28;20796;-85
2022/04/10 09:58:07;;;;;;;4.23;2.93;;;8.50;94.50;;;;;;4969184;28;20464;-85
2022/04/10 10:00:37;;;;;;;3.43;2.40;;;9.00;94.10;;;;;;4974205;28;20552;-84
2022/04/10 10:03:05;;;;;;;3.93;2.70;;;9.20;93.40;;;;;;4960843;28;23455;-84
2022/04/10 10:05:31;;;;;;;3.23;2.30;;;9.80;92.80;;;;;;4968963;28;20547;-85
2022/04/10 10:07:58;;;;;;;2.70;2.50;;;10.40;91.40;;;;;;4959343;28;20432;-85
2022/04/10 10:10:26;;;;;;;3.53;2.60;;;10.30;91.20;;;;;;4963398;28;20441;-85
2022/04/10 10:12:52;;;;;;;3.87;3.07;;;10.50;91.70;;;;;;4969201;28;20451;-85
2022/04/10 10:15:19;;;;;;;4.10;3.03;;;9.60;89.00;;;;;;4971139;28;20476;-84
2022/04/10 10:17:45;;;;;;;4.00;3.00;;;8.80;90.00;;;;;;4974535;28;20447;-85
2022/04/10 10:20:11;;;;;;;4.63;3.27;;;8.60;91.50;;;;;;4973361;28;20488;-84
2022/04/10 10:22:37;;;;;;;4.00;3.03;;;8.40;92.50;;;;;;4988115;28;20435;-84
2022/04/10 10:25:12;;;;;;;3.63;3.00;;;8.40;92.40;;;;;;4981362;28;20551;-84
2022/04/10 10:28:15;;;;;;;4.30;2.70;;;8.40;93.20;;;;;;4977282;28;20737;-84
2022/04/10 10:31:15;;;;;;;3.50;3.20;;;9.20;92.80;;;;;;4970776;28;20513;-85
2022/04/10 10:33:54;;;;;;;5.30;3.37;;;9.80;91.20;;;;;;4979216;28;20458;-85
2022/04/10 10:36:29;;;;;;;3.00;2.80;;;10.90;91.70;;;;;;4979973;28;20446;-84
2022/04/10 10:38:57;;;;;;;3.87;3.10;;;11.40;89.20;;;;;;4980579;28;20491;-84
2022/04/10 10:41:22;;;;;;;3.10;2.80;;;11.60;87.20;;;;;;4983376;28;20448;-84
2022/04/10 10:43:48;;;;;;;2.83;2.50;;;10.40;80.50;;;;;;4979376;28;20427;-85
2022/04/10 10:46:34;;;;;;;3.43;3.10;;;9.60;84.70;;;;;;4977272;28;20240;-84
2022/04/10 10:49:11;;;;;;;3.13;2.90;;;8.40;93.70;;;;;;4974845;28;20683;-83
2022/04/10 10:51:39;;;;;;;4.90;3.53;;;6.90;99.90;;;;;;4990440;28;20440;-84
2022/04/10 10:54:11;;;;;;;5.80;4.50;;;6.50;99.90;;;;;;4975083;28;20493;-86
2022/04/10 10:56:40;;;;;;;6.03;4.50;;;6.20;99.90;;;;;;4981596;28;20449;-86
2022/04/10 10:59:22;;;;;;;4.10;3.70;;;5.80;99.90;;;;;;4979088;28;20479;-83
2022/04/10 11:01:55;;;;;;;3.70;3.40;;;5.80;99.90;;;;;;4982789;28;20471;-84
2022/04/10 11:04:23;;;;;;;6.00;3.83;;;5.90;99.90;;;;;;4985720;28;20608;-84
2022/04/10 11:06:51;;;;;;;4.20;3.70;;;6.00;99.90;;;;;;4982223;28;20811;-84
2022/04/10 11:09:31;;;;;;;4.23;3.13;;;6.30;99.90;;;;;;4975659;28;20455;-84
2022/04/10 11:11:58;;;;;;;3.37;3.07;;;6.60;99.90;;;;;;4985738;28;20509;-84
2022/04/10 11:14:39;;;;;;;3.23;2.93;;;6.90;99.90;;;;;;4978422;28;20512;-84
2022/04/10 11:17:19;;;;;;;3.60;2.67;;;7.60;99.90;;;;;;4983163;28;20826;-83
2022/04/10 11:19:48;;;;;;;2.87;2.67;;;8.20;99.90;;;;;;4981066;28;20553;-83
2022/04/10 11:22:22;;;;;;;5.97;3.00;;;9.20;99.90;;;;;;4980069;28;20794;-84
2022/04/10 11:24:58;;;;;;;2.93;2.70;;;9.50;97.20;;;;;;4982756;28;20451;-84
2022/04/10 11:27:44;;;;;;;4.07;2.90;;;10.20;93.40;;;;;;4984240;28;20491;-84
2022/04/10 11:30:12;;;;;;;3.70;3.40;;;9.90;91.70;;;;;;4981102;28;20475;-83
2022/04/10 11:32:42;;;;;;;4.13;3.43;;;9.50;93.60;;;;;;4983573;28;20450;-83
2022/04/10 11:35:40;;;;;;;4.20;3.30;;;9.50;93.00;;;;;;4984393;28;20526;-84
2022/04/10 11:38:07;;;;;;;4.27;3.87;;;9.70;93.50;;;;;;4985505;28;20514;-84
2022/04/10 11:40:34;;;;;;;4.33;3.60;;;9.90;93.80;;;;;;4977778;28;21090;-84
2022/04/10 11:43:02;;;;;;;6.30;4.17;;;10.40;93.00;;;;;;4984953;28;20437;-84
2022/04/10 11:45:30;;;;;;;5.30;4.80;;;10.40;91.90;;;;;;4979593;28;20448;-84
2022/04/10 11:47:57;;;;;;;9.23;5.37;;;10.00;92.40;;;;;;4974541;28;20451;-83
2022/04/10 11:50:25;;;;;;;5.40;5.00;;;9.40;93.50;;;;;;4981992;28;20449;-84
2022/04/10 11:53:07;;;;;;;4.23;3.80;;;9.00;94.60;;;;;;4982346;28;20441;-84
2022/04/10 11:55:36;;;;;;;2.60;2.40;;;8.40;97.30;;;;;;4982529;28;20448;-83
2022/04/10 11:58:17;;;;;;;2.87;2.67;;;7.40;99.00;;;;;;4977465;28;20515;-83
2022/04/10 12:00:58;;;;;;;3.20;2.73;;;6.70;99.90;;;;;;4995190;28;20509;-84
2022/04/10 12:03:25;;;;;;;2.70;2.43;;;6.50;99.90;;;;;;4977428;28;20886;-83
2022/04/10 12:05:52;;;;;;;2.53;2.23;;;6.80;99.90;;;;;;4979678;28;20497;-83
2022/04/10 12:08:18;;;;;;;2.50;2.30;;;7.10;99.90;;;;;;4980302;28;20517;-83
2022/04/10 12:10:54;;;;;;;1.97;1.87;;;7.80;99.90;;;;;;4982432;28;20447;-84
2022/04/10 12:13:20;;;;;;;2.97;2.67;;;8.00;99.90;;;;;;4979725;28;20449;-82
2022/04/10 12:15:46;;;;;;;3.00;2.47;;;8.30;99.90;;;;;;4983379;28;20581;-84
2022/04/10 12:18:13;;;;;;;3.80;3.50;;;8.30;99.50;;;;;;4984161;28;20750;-84
2022/04/10 12:20:44;;;;;;;3.17;2.97;;;8.20;99.90;;;;;;4983071;28;20225;-83
2022/04/10 12:23:17;;;;;;;3.70;3.33;;;8.10;98.40;;;;;;4977046;28;20443;-83
2022/04/10 12:25:43;;;;;;;5.00;3.57;;;7.90;99.50;;;;;;4993164;28;20449;-86
2022/04/10 12:28:09;;;;;;;3.20;3.00;;;8.00;98.30;;;;;;4980175;28;20438;-86
2022/04/10 12:30:38;;;;;;;3.10;2.90;;;8.40;99.60;;;;;;4976122;28;20486;-83
2022/04/10 12:33:05;;;;;;;3.37;3.07;;;9.10;97.40;;;;;;4982070;28;20477;-84
2022/04/10 12:35:37;;;;;;;5.57;3.13;;;9.40;95.20;;;;;;4981241;28;20442;-85
2022/04/10 12:38:15;;;;;;;4.70;3.80;;;9.10;94.30;;;;;;4977607;28;20452;-84
2022/04/10 12:40:42;;;;;;;3.90;3.50;;;9.00;95.10;;;;;;4968201;28;20478;-86
2022/04/10 12:43:09;;;;;;;4.50;4.10;;;9.00;94.70;;;;;;4972793;28;20891;-85
2022/04/10 12:45:38;;;;;;;4.30;3.90;;;9.20;95.50;;;;;;4990089;28;20491;-83
2022/04/10 12:48:24;;;;;;;4.10;3.80;;;9.60;94.70;;;;;;4969118;28;20484;-82
2022/04/10 12:51:09;;;;;;;4.43;4.03;;;10.50;93.10;;;;;;4972278;28;20538;-81
2022/04/10 12:53:36;;;;;;;5.20;3.90;;;10.40;92.30;;;;;;4977770;28;20443;-83
2022/04/10 12:56:02;;;;;;;3.73;3.40;;;10.90;92.60;;;;;;4975196;28;20447;-82
2022/04/10 12:58:31;;;;;;;4.63;3.87;;;10.80;91.60;;;;;;4975944;28;20439;-83
2022/04/10 13:00:57;;;;;;;4.20;3.63;;;10.10;93.20;;;;;;4971002;28;20534;-83
2022/04/10 13:03:25;;;;;;;7.43;3.60;;;9.70;95.10;;;;;;4965657;28;20525;-82